sensor_id;sensor_type;location;lat;lon;timestamp;pressure;altitude;pressure_sealevel;temperature;humidity
53011;BME280;42803;55.762;38.084;2022-08-20T00:01:21;100613.66;;;15.64;64.30
53011;BME280;42803;55.762;38.084;2022-08-20T00:03:51;100617.44;;;15.55;64.00
53011;BME280;42803;55.762;38.084;2022-08-20T00:06:23;100624.66;;;15.46;64.01
53011;BME280;42803;55.762;38.084;2022-08-20T00:08:52;100624.63;;;15.34;64.86
53011;BME280;42803;55.762;38.084;2022-08-20T00:11:24;100627.69;;;15.29;65.11
53011;BME280;42803;55.762;38.084;2022-08-20T00:13:57;100625.53;;;15.23;65.21
53011;BME280;42803;55.762;38.084;2022-08-20T00:16:30;100630.56;;;15.20;65.43
53011;BME280;42803;55.762;38.084;2022-08-20T00:18:59;100624.59;;;15.11;65.79
53011;BME280;42803;55.762;38.084;2022-08-20T00:21:28;100621.47;;;15.05;66.16
53011;BME280;42803;55.762;38.084;2022-08-20T00:23:58;100625.25;;;14.97;66.50
53011;BME280;42803;55.762;38.084;2022-08-20T00:26:28;100624.09;;;14.93;66.58
53011;BME280;42803;55.762;38.084;2022-08-20T00:28:57;100626.56;;;14.92;66.29
53011;BME280;42803;55.762;38.084;2022-08-20T00:31:26;100626.38;;;14.89;66.64
53011;BME280;42803;55.762;38.084;2022-08-20T00:33:55;100629.56;;;14.84;67.12
53011;BME280;42803;55.762;38.084;2022-08-20T00:36:24;100625.63;;;14.79;67.64
53011;BME280;42803;55.762;38.084;2022-08-20T00:38:59;100627.91;;;14.75;67.58
53011;BME280;42803;55.762;38.084;2022-08-20T00:41:30;100627.91;;;14.75;67.86
53011;BME280;42803;55.762;38.084;2022-08-20T00:44:08;100627.53;;;14.70;68.21
53011;BME280;42803;55.762;38.084;2022-08-20T00:46:38;100633.72;;;14.71;68.43
53011;BME280;42803;55.762;38.084;2022-08-20T00:49:13;100634.03;;;14.63;68.49
53011;BME280;42803;55.762;38.084;2022-08-20T00:51:46;100622.34;;;14.60;68.45
53011;BME280;42803;55.762;38.084;2022-08-20T00:54:19;100640.50;;;14.57;69.40
53011;BME280;42803;55.762;38.084;2022-08-20T00:56:55;100629.22;;;14.58;69.27
53011;BME280;42803;55.762;38.084;2022-08-20T00:59:28;100634.69;;;14.61;69.24
53011;BME280;42803;55.762;38.084;2022-08-20T01:01:59;100644.44;;;14.62;69.14
53011;BME280;42803;55.762;38.084;2022-08-20T01:04:30;100639.94;;;14.61;68.97
53011;BME280;42803;55.762;38.084;2022-08-20T01:07:01;100650.34;;;14.59;69.03
53011;BME280;42803;55.762;38.084;2022-08-20T01:09:33;100648.16;;;14.54;69.13
53011;BME280;42803;55.762;38.084;2022-08-20T01:12:24;100648.53;;;14.48;69.26
53011;BME280;42803;55.762;38.084;2022-08-20T01:14:54;100649.19;;;14.46;69.93
53011;BME280;42803;55.762;38.084;2022-08-20T01:17:25;100648.72;;;14.39;70.34
53011;BME280;42803;55.762;38.084;2022-08-20T01:20:02;100651.22;;;14.38;69.78
53011;BME280;42803;55.762;38.084;2022-08-20T01:22:39;100655.19;;;14.33;69.94
53011;BME280;42803;55.762;38.084;2022-08-20T01:28:04;100647.50;;;14.24;70.39
53011;BME280;42803;55.762;38.084;2022-08-20T01:30:34;100644.31;;;14.28;70.20
53011;BME280;42803;55.762;38.084;2022-08-20T01:33:03;100653.66;;;14.25;70.61
53011;BME280;42803;55.762;38.084;2022-08-20T01:35:35;100639.09;;;14.18;70.86
53011;BME280;42803;55.762;38.084;2022-08-20T01:38:05;100648.81;;;14.19;70.94
53011;BME280;42803;55.762;38.084;2022-08-20T01:40:47;100640.16;;;14.20;70.61
53011;BME280;42803;55.762;38.084;2022-08-20T01:43:19;100651.06;;;14.14;71.01
53011;BME280;42803;55.762;38.084;2022-08-20T01:45:51;100644.91;;;14.14;70.91
53011;BME280;42803;55.762;38.084;2022-08-20T01:48:21;100650.81;;;14.11;70.92
53011;BME280;42803;55.762;38.084;2022-08-20T01:50:57;100659.75;;;14.13;71.13
53011;BME280;42803;55.762;38.084;2022-08-20T01:53:31;100655.66;;;14.17;71.10
53011;BME280;42803;55.762;38.084;2022-08-20T01:56:01;100651.31;;;14.18;70.74
53011;BME280;42803;55.762;38.084;2022-08-20T01:58:33;100649.91;;;14.11;71.31
53011;BME280;42803;55.762;38.084;2022-08-20T02:01:03;100646.34;;;14.10;71.65
53011;BME280;42803;55.762;38.084;2022-08-20T02:03:32;100651.75;;;14.12;71.63
53011;BME280;42803;55.762;38.084;2022-08-20T02:06:09;100644.16;;;14.05;71.71
53011;BME280;42803;55.762;38.084;2022-08-20T02:08:38;100647.03;;;14.08;71.79
53011;BME280;42803;55.762;38.084;2022-08-20T02:11:07;100648.63;;;14.06;72.10
53011;BME280;42803;55.762;38.084;2022-08-20T02:13:37;100649.00;;;14.10;72.04
53011;BME280;42803;55.762;38.084;2022-08-20T02:16:07;100650.41;;;14.17;72.19
53011;BME280;42803;55.762;38.084;2022-08-20T02:18:36;100648.81;;;14.19;71.80
53011;BME280;42803;55.762;38.084;2022-08-20T02:21:06;100658.66;;;14.22;72.30
53011;BME280;42803;55.762;38.084;2022-08-20T02:23:35;100649.31;;;14.25;71.84
53011;BME280;42803;55.762;38.084;2022-08-20T02:26:04;100655.47;;;14.26;72.18
53011;BME280;42803;55.762;38.084;2022-08-20T02:28:34;100654.56;;;14.25;72.54
53011;BME280;42803;55.762;38.084;2022-08-20T02:31:04;100650.53;;;14.19;72.72
53011;BME280;42803;55.762;38.084;2022-08-20T02:33:35;100655.41;;;14.14;72.64
53011;BME280;42803;55.762;38.084;2022-08-20T02:36:06;100658.56;;;14.10;72.75
53011;BME280;42803;55.762;38.084;2022-08-20T02:38:35;100661.19;;;14.10;73.55
53011;BME280;42803;55.762;38.084;2022-08-20T02:41:05;100667.72;;;14.15;73.29
53011;BME280;42803;55.762;38.084;2022-08-20T02:43:35;100661.44;;;14.23;73.72
53011;BME280;42803;55.762;38.084;2022-08-20T02:46:06;100656.06;;;14.44;72.94
53011;BME280;42803;55.762;38.084;2022-08-20T02:48:35;100656.31;;;14.69;73.00
53011;BME280;42803;55.762;38.084;2022-08-20T02:51:05;100648.31;;;14.89;71.84
53011;BME280;42803;55.762;38.084;2022-08-20T02:53:36;100655.66;;;15.05;71.64
53011;BME280;42803;55.762;38.084;2022-08-20T02:56:05;100667.13;;;15.17;70.91
53011;BME280;42803;55.762;38.084;2022-08-20T02:58:35;100670.91;;;15.21;71.09
53011;BME280;42803;55.762;38.084;2022-08-20T03:01:07;100681.16;;;15.40;70.86
53011;BME280;42803;55.762;38.084;2022-08-20T03:03:38;100674.75;;;15.48;70.37
53011;BME280;42803;55.762;38.084;2022-08-20T03:06:09;100670.16;;;15.45;70.78
53011;BME280;42803;55.762;38.084;2022-08-20T03:08:39;100678.53;;;15.51;70.62
53011;BME280;42803;55.762;38.084;2022-08-20T03:11:08;100677.53;;;15.61;70.13
53011;BME280;42803;55.762;38.084;2022-08-20T03:13:38;100671.16;;;15.69;70.02
53011;BME280;42803;55.762;38.084;2022-08-20T03:16:09;100676.88;;;15.75;70.40
53011;BME280;42803;55.762;38.084;2022-08-20T03:18:40;100676.09;;;15.76;70.05
53011;BME280;42803;55.762;38.084;2022-08-20T03:21:10;100676.28;;;15.79;70.09
53011;BME280;42803;55.762;38.084;2022-08-20T03:23:41;100671.06;;;15.91;69.43
53011;BME280;42803;55.762;38.084;2022-08-20T03:26:11;100678.97;;;15.91;69.22
53011;BME280;42803;55.762;38.084;2022-08-20T03:28:41;100675.28;;;15.89;69.66
53011;BME280;42803;55.762;38.084;2022-08-20T03:31:11;100676.19;;;15.90;69.83
53011;BME280;42803;55.762;38.084;2022-08-20T03:33:41;100677.81;;;15.88;69.93
53011;BME280;42803;55.762;38.084;2022-08-20T03:36:19;100683.19;;;15.89;69.68
53011;BME280;42803;55.762;38.084;2022-08-20T03:38:55;100689.81;;;15.96;69.26
53011;BME280;42803;55.762;38.084;2022-08-20T03:41:25;100698.88;;;15.88;69.14
53011;BME280;42803;55.762;38.084;2022-08-20T03:43:55;100699.78;;;15.88;69.57
53011;BME280;42803;55.762;38.084;2022-08-20T03:46:25;100705.06;;;15.88;69.16
53011;BME280;42803;55.762;38.084;2022-08-20T03:48:55;100695.75;;;15.81;69.21
53011;BME280;42803;55.762;38.084;2022-08-20T03:51:27;100703.91;;;15.84;69.18
53011;BME280;42803;55.762;38.084;2022-08-20T03:53:57;100690.41;;;15.92;69.10
53011;BME280;42803;55.762;38.084;2022-08-20T03:56:27;100689.00;;;15.97;68.71
53011;BME280;42803;55.762;38.084;2022-08-20T03:58:56;100696.00;;;16.08;68.71
53011;BME280;42803;55.762;38.084;2022-08-20T04:01:26;100691.75;;;16.10;68.38
53011;BME280;42803;55.762;38.084;2022-08-20T04:04:13;100692.44;;;16.19;67.98
53011;BME280;42803;55.762;38.084;2022-08-20T04:06:42;100701.94;;;16.17;67.90
53011;BME280;42803;55.762;38.084;2022-08-20T04:09:14;100687.75;;;16.15;67.55
53011;BME280;42803;55.762;38.084;2022-08-20T04:11:43;100673.88;;;16.18;67.70
53011;BME280;42803;55.762;38.084;2022-08-20T04:14:12;100686.03;;;16.16;67.70
53011;BME280;42803;55.762;38.084;2022-08-20T04:16:48;100693.94;;;16.16;67.57
53011;BME280;42803;55.762;38.084;2022-08-20T04:19:17;100704.38;;;16.14;67.46
53011;BME280;42803;55.762;38.084;2022-08-20T04:21:47;100693.44;;;16.21;67.00
53011;BME280;42803;55.762;38.084;2022-08-20T04:24:16;100701.56;;;16.36;66.52
53011;BME280;42803;55.762;38.084;2022-08-20T04:26:59;100710.50;;;16.50;66.42
53011;BME280;42803;55.762;38.084;2022-08-20T04:29:30;100694.75;;;16.63;65.91
53011;BME280;42803;55.762;38.084;2022-08-20T04:32:04;100689.81;;;16.79;65.38
53011;BME280;42803;55.762;38.084;2022-08-20T04:34:34;100693.06;;;16.75;64.26
53011;BME280;42803;55.762;38.084;2022-08-20T04:37:03;100693.69;;;16.85;63.79
53011;BME280;42803;55.762;38.084;2022-08-20T04:39:43;100690.47;;;16.89;63.14
53011;BME280;42803;55.762;38.084;2022-08-20T04:42:35;100682.88;;;16.93;62.41
53011;BME280;42803;55.762;38.084;2022-08-20T04:45:07;100683.41;;;17.01;62.64
53011;BME280;42803;55.762;38.084;2022-08-20T04:47:37;100685.59;;;17.07;62.29
53011;BME280;42803;55.762;38.084;2022-08-20T04:50:08;100697.25;;;17.10;62.10
53011;BME280;42803;55.762;38.084;2022-08-20T04:52:37;100694.69;;;16.98;61.98
53011;BME280;42803;55.762;38.084;2022-08-20T04:55:07;100698.47;;;17.02;62.27
53011;BME280;42803;55.762;38.084;2022-08-20T04:57:36;100702.69;;;17.00;62.32
53011;BME280;42803;55.762;38.084;2022-08-20T05:00:09;100692.00;;;17.10;62.25
53011;BME280;42803;55.762;38.084;2022-08-20T05:02:41;100695.50;;;17.36;61.59
53011;BME280;42803;55.762;38.084;2022-08-20T05:05:11;100686.88;;;17.63;60.56
53011;BME280;42803;55.762;38.084;2022-08-20T05:07:43;100689.81;;;17.68;60.54
53011;BME280;42803;55.762;38.084;2022-08-20T05:10:14;100696.84;;;17.81;60.12
53011;BME280;42803;55.762;38.084;2022-08-20T05:12:44;100694.94;;;17.53;60.25
53011;BME280;42803;55.762;38.084;2022-08-20T05:15:24;100702.31;;;17.07;61.13
53011;BME280;42803;55.762;38.084;2022-08-20T05:17:56;100697.78;;;16.93;61.98
53011;BME280;42803;55.762;38.084;2022-08-20T05:20:28;100704.00;;;16.81;62.66
53011;BME280;42803;55.762;38.084;2022-08-20T05:22:58;100701.00;;;16.89;62.17
53011;BME280;42803;55.762;38.084;2022-08-20T05:25:27;100699.00;;;17.10;61.98
53011;BME280;42803;55.762;38.084;2022-08-20T05:27:57;100701.59;;;17.35;61.18
53011;BME280;42803;55.762;38.084;2022-08-20T05:30:28;100701.56;;;17.60;60.63
53011;BME280;42803;55.762;38.084;2022-08-20T05:33:04;100707.31;;;18.19;59.38
53011;BME280;42803;55.762;38.084;2022-08-20T05:35:35;100697.50;;;18.16;57.82
53011;BME280;42803;55.762;38.084;2022-08-20T05:38:06;100695.56;;;18.14;58.96
53011;BME280;42803;55.762;38.084;2022-08-20T05:40:35;100702.78;;;18.16;59.38
53011;BME280;42803;55.762;38.084;2022-08-20T05:43:05;100707.31;;;18.45;58.81
53011;BME280;42803;55.762;38.084;2022-08-20T05:45:36;100715.16;;;18.44;58.88
53011;BME280;42803;55.762;38.084;2022-08-20T05:48:09;100712.25;;;18.67;58.01
53011;BME280;42803;55.762;38.084;2022-08-20T05:50:39;100720.91;;;18.65;57.88
53011;BME280;42803;55.762;38.084;2022-08-20T05:53:08;100720.19;;;18.81;57.96
53011;BME280;42803;55.762;38.084;2022-08-20T05:55:38;100713.16;;;18.68;57.92
53011;BME280;42803;55.762;38.084;2022-08-20T05:58:14;100709.97;;;18.32;57.98
53011;BME280;42803;55.762;38.084;2022-08-20T06:00:44;100715.16;;;18.44;58.59
53011;BME280;42803;55.762;38.084;2022-08-20T06:03:15;100718.63;;;18.30;58.49
53011;BME280;42803;55.762;38.084;2022-08-20T06:06:16;100716.00;;;18.16;58.90
53011;BME280;42803;55.762;38.084;2022-08-20T06:09:07;100719.31;;;18.40;58.85
53011;BME280;42803;55.762;38.084;2022-08-20T06:11:36;100706.56;;;18.61;58.22
53011;BME280;42803;55.762;38.084;2022-08-20T06:14:05;100701.97;;;18.85;57.19
53011;BME280;42803;55.762;38.084;2022-08-20T06:16:35;100715.78;;;19.37;56.61
53011;BME280;42803;55.762;38.084;2022-08-20T06:19:05;100703.59;;;19.54;55.77
53011;BME280;42803;55.762;38.084;2022-08-20T06:21:38;100711.88;;;19.60;55.77
53011;BME280;42803;55.762;38.084;2022-08-20T06:24:08;100713.13;;;19.37;55.54
53011;BME280;42803;55.762;38.084;2022-08-20T06:26:37;100711.47;;;19.67;55.57
53011;BME280;42803;55.762;38.084;2022-08-20T06:29:06;100706.38;;;20.00;55.14
53011;BME280;42803;55.762;38.084;2022-08-20T06:31:35;100705.72;;;19.89;54.59
53011;BME280;42803;55.762;38.084;2022-08-20T06:34:07;100706.97;;;19.52;55.35
53011;BME280;42803;55.762;38.084;2022-08-20T06:36:36;100714.63;;;19.47;55.45
53011;BME280;42803;55.762;38.084;2022-08-20T06:39:05;100710.06;;;19.44;55.77
53011;BME280;42803;55.762;38.084;2022-08-20T06:41:35;100693.34;;;19.60;55.89
53011;BME280;42803;55.762;38.084;2022-08-20T06:44:05;100703.25;;;19.78;54.66
53011;BME280;42803;55.762;38.084;2022-08-20T06:46:35;100689.63;;;19.71;54.99
53011;BME280;42803;55.762;38.084;2022-08-20T06:49:06;100701.59;;;19.65;54.71
53011;BME280;42803;55.762;38.084;2022-08-20T06:51:37;100699.28;;;19.56;54.78
53011;BME280;42803;55.762;38.084;2022-08-20T06:54:08;100697.19;;;19.51;54.62
53011;BME280;42803;55.762;38.084;2022-08-20T06:56:37;100687.75;;;19.41;55.18
53011;BME280;42803;55.762;38.084;2022-08-20T06:59:06;100695.25;;;19.33;55.53
53011;BME280;42803;55.762;38.084;2022-08-20T07:01:35;100688.84;;;19.30;54.98
53011;BME280;42803;55.762;38.084;2022-08-20T07:04:05;100693.78;;;19.53;54.86
53011;BME280;42803;55.762;38.084;2022-08-20T07:06:37;100692.56;;;19.61;54.28
53011;BME280;42803;55.762;38.084;2022-08-20T07:09:06;100694.41;;;19.62;53.56
53011;BME280;42803;55.762;38.084;2022-08-20T07:11:36;100696.38;;;19.52;53.52
53011;BME280;42803;55.762;38.084;2022-08-20T07:14:05;100693.97;;;19.56;53.38
53011;BME280;42803;55.762;38.084;2022-08-20T07:16:34;100681.63;;;19.70;52.82
53011;BME280;42803;55.762;38.084;2022-08-20T07:19:04;100677.91;;;20.12;52.75
53011;BME280;42803;55.762;38.084;2022-08-20T07:21:34;100675.97;;;20.25;52.05
53011;BME280;42803;55.762;38.084;2022-08-20T07:24:05;100676.25;;;20.14;51.79
53011;BME280;42803;55.762;38.084;2022-08-20T07:26:36;100679.34;;;20.22;51.77
53011;BME280;42803;55.762;38.084;2022-08-20T07:29:05;100669.69;;;20.23;51.91
53011;BME280;42803;55.762;38.084;2022-08-20T07:31:34;100670.44;;;20.51;51.25
53011;BME280;42803;55.762;38.084;2022-08-20T07:34:22;100658.75;;;20.64;50.56
53011;BME280;42803;55.762;38.084;2022-08-20T07:36:52;100667.81;;;20.84;50.56
53011;BME280;42803;55.762;38.084;2022-08-20T07:39:23;100660.66;;;20.83;50.09
53011;BME280;42803;55.762;38.084;2022-08-20T07:41:56;100665.72;;;20.94;50.03
53011;BME280;42803;55.762;38.084;2022-08-20T07:44:30;100663.31;;;21.15;50.27
53011;BME280;42803;55.762;38.084;2022-08-20T07:46:59;100667.56;;;21.12;50.10
53011;BME280;42803;55.762;38.084;2022-08-20T07:49:36;100666.91;;;21.00;49.15
53011;BME280;42803;55.762;38.084;2022-08-20T07:52:06;100666.63;;;21.28;48.93
53011;BME280;42803;55.762;38.084;2022-08-20T07:54:37;100666.63;;;21.60;48.00
53011;BME280;42803;55.762;38.084;2022-08-20T07:57:07;100656.22;;;22.17;46.96
53011;BME280;42803;55.762;38.084;2022-08-20T07:59:38;100660.94;;;22.42;46.36
53011;BME280;42803;55.762;38.084;2022-08-20T08:02:07;100656.38;;;22.57;45.39
53011;BME280;42803;55.762;38.084;2022-08-20T08:04:38;100664.00;;;23.26;44.54
53011;BME280;42803;55.762;38.084;2022-08-20T08:07:07;100657.75;;;22.86;44.33
53011;BME280;42803;55.762;38.084;2022-08-20T08:09:38;100648.56;;;22.07;45.52
53011;BME280;42803;55.762;38.084;2022-08-20T08:12:09;100660.41;;;21.78;46.71
53011;BME280;42803;55.762;38.084;2022-08-20T08:14:42;100653.34;;;21.44;46.39
53011;BME280;42803;55.762;38.084;2022-08-20T08:17:15;100653.50;;;21.47;46.24
53011;BME280;42803;55.762;38.084;2022-08-20T08:19:48;100644.91;;;21.69;45.45
53011;BME280;42803;55.762;38.084;2022-08-20T08:22:18;100655.59;;;22.23;45.35
53011;BME280;42803;55.762;38.084;2022-08-20T08:24:49;100655.78;;;22.45;44.30
53011;BME280;42803;55.762;38.084;2022-08-20T08:27:24;100660.94;;;22.79;43.55
53011;BME280;42803;55.762;38.084;2022-08-20T08:29:53;100664.94;;;22.32;43.80
53011;BME280;42803;55.762;38.084;2022-08-20T08:32:22;100662.22;;;22.50;43.62
53011;BME280;42803;55.762;38.084;2022-08-20T08:34:51;100663.19;;;22.33;43.72
53011;BME280;42803;55.762;38.084;2022-08-20T08:37:20;100655.81;;;22.09;43.66
53011;BME280;42803;55.762;38.084;2022-08-20T08:39:51;100664.63;;;22.26;44.02
53011;BME280;42803;55.762;38.084;2022-08-20T08:42:24;100661.66;;;22.38;42.85
53011;BME280;42803;55.762;38.084;2022-08-20T08:44:54;100675.09;;;22.59;42.86
53011;BME280;42803;55.762;38.084;2022-08-20T08:47:27;100672.38;;;22.22;42.72
53011;BME280;42803;55.762;38.084;2022-08-20T08:49:57;100675.50;;;21.61;42.57
53011;BME280;42803;55.762;38.084;2022-08-20T08:52:29;100681.41;;;21.39;43.32
53011;BME280;42803;55.762;38.084;2022-08-20T08:55:04;100683.56;;;21.30;43.68
53011;BME280;42803;55.762;38.084;2022-08-20T08:57:33;100683.44;;;21.10;43.75
53011;BME280;42803;55.762;38.084;2022-08-20T09:00:18;100678.78;;;21.06;43.68
53011;BME280;42803;55.762;38.084;2022-08-20T09:02:53;100681.88;;;21.32;43.42
53011;BME280;42803;55.762;38.084;2022-08-20T09:05:29;100683.09;;;21.37;43.79
53011;BME280;42803;55.762;38.084;2022-08-20T09:08:01;100681.91;;;21.15;43.88
53011;BME280;42803;55.762;38.084;2022-08-20T09:10:32;100685.66;;;21.03;44.14
53011;BME280;42803;55.762;38.084;2022-08-20T09:13:02;100683.31;;;20.76;45.04
53011;BME280;42803;55.762;38.084;2022-08-20T09:15:31;100696.72;;;20.63;44.95
53011;BME280;42803;55.762;38.084;2022-08-20T09:18:01;100698.97;;;20.72;45.10
53011;BME280;42803;55.762;38.084;2022-08-20T09:20:30;100692.09;;;20.44;45.42
53011;BME280;42803;55.762;38.084;2022-08-20T09:22:59;100693.09;;;20.15;47.58
53011;BME280;42803;55.762;38.084;2022-08-20T09:25:29;100697.66;;;20.03;48.25
53011;BME280;42803;55.762;38.084;2022-08-20T09:27:59;100699.78;;;20.08;47.66
53011;BME280;42803;55.762;38.084;2022-08-20T09:30:30;100698.97;;;20.26;48.15
53011;BME280;42803;55.762;38.084;2022-08-20T09:32:59;100700.53;;;20.22;48.48
53011;BME280;42803;55.762;38.084;2022-08-20T09:35:29;100695.56;;;19.97;48.94
53011;BME280;42803;55.762;38.084;2022-08-20T09:37:58;100707.72;;;19.79;48.96
53011;BME280;42803;55.762;38.084;2022-08-20T09:40:27;100702.63;;;19.82;50.29
53011;BME280;42803;55.762;38.084;2022-08-20T09:42:56;100701.72;;;19.66;51.59
53011;BME280;42803;55.762;38.084;2022-08-20T09:45:27;100710.75;;;19.42;52.22
53011;BME280;42803;55.762;38.084;2022-08-20T09:47:56;100702.81;;;19.27;53.67
53011;BME280;42803;55.762;38.084;2022-08-20T09:50:28;100699.50;;;19.16;53.12
53011;BME280;42803;55.762;38.084;2022-08-20T09:53:00;100697.09;;;19.06;54.99
53011;BME280;42803;55.762;38.084;2022-08-20T09:55:33;100690.06;;;19.07;54.17
53011;BME280;42803;55.762;38.084;2022-08-20T09:58:06;100686.81;;;19.26;54.73
53011;BME280;42803;55.762;38.084;2022-08-20T10:00:37;100690.69;;;19.45;54.67
53011;BME280;42803;55.762;38.084;2022-08-20T10:03:06;100687.31;;;19.48;55.49
53011;BME280;42803;55.762;38.084;2022-08-20T10:05:35;100684.03;;;19.52;54.99
53011;BME280;42803;55.762;38.084;2022-08-20T10:08:05;100682.41;;;19.54;55.94
53011;BME280;42803;55.762;38.084;2022-08-20T10:10:34;100686.50;;;19.49;55.90
53011;BME280;42803;55.762;38.084;2022-08-20T10:13:03;100670.28;;;19.15;56.30
53011;BME280;42803;55.762;38.084;2022-08-20T10:15:34;100662.16;;;18.97;57.76
53011;BME280;42803;55.762;38.084;2022-08-20T10:18:08;100648.88;;;18.69;58.32
53011;BME280;42803;55.762;38.084;2022-08-20T10:20:39;100655.69;;;18.79;57.52
53011;BME280;42803;55.762;38.084;2022-08-20T10:23:08;100652.81;;;18.89;55.39
53011;BME280;42803;55.762;38.084;2022-08-20T10:25:38;100663.44;;;19.18;55.14
53011;BME280;42803;55.762;38.084;2022-08-20T10:28:07;100666.59;;;19.41;54.27
53011;BME280;42803;55.762;38.084;2022-08-20T10:30:36;100663.59;;;19.35;54.83
53011;BME280;42803;55.762;38.084;2022-08-20T10:33:06;100673.16;;;19.33;55.05
53011;BME280;42803;55.762;38.084;2022-08-20T10:35:36;100675.78;;;19.18;56.17
53011;BME280;42803;55.762;38.084;2022-08-20T10:38:05;100669.72;;;19.06;55.27
53011;BME280;42803;55.762;38.084;2022-08-20T10:40:34;100670.59;;;19.19;54.96
53011;BME280;42803;55.762;38.084;2022-08-20T10:43:03;100667.84;;;19.33;55.14
53011;BME280;42803;55.762;38.084;2022-08-20T10:45:32;100658.44;;;19.08;55.56
53011;BME280;42803;55.762;38.084;2022-08-20T10:48:02;100649.22;;;18.88;56.36
53011;BME280;42803;55.762;38.084;2022-08-20T10:50:37;100654.84;;;18.93;56.53
53011;BME280;42803;55.762;38.084;2022-08-20T10:53:06;100666.38;;;19.08;56.91
53011;BME280;42803;55.762;38.084;2022-08-20T10:55:35;100659.38;;;19.23;55.52
53011;BME280;42803;55.762;38.084;2022-08-20T10:58:08;100652.19;;;19.51;54.26
53011;BME280;42803;55.762;38.084;2022-08-20T11:00:39;100658.72;;;19.57;54.64
53011;BME280;42803;55.762;38.084;2022-08-20T11:03:09;100645.63;;;19.74;54.13
53011;BME280;42803;55.762;38.084;2022-08-20T11:05:39;100649.97;;;19.88;53.92
53011;BME280;42803;55.762;38.084;2022-08-20T11:08:08;100648.34;;;19.90;53.74
53011;BME280;42803;55.762;38.084;2022-08-20T11:10:37;100650.72;;;19.85;53.56
53011;BME280;42803;55.762;38.084;2022-08-20T11:13:07;100648.97;;;19.86;53.30
53011;BME280;42803;55.762;38.084;2022-08-20T11:15:40;100645.00;;;20.09;53.41
53011;BME280;42803;55.762;38.084;2022-08-20T11:18:11;100642.63;;;20.13;53.14
53011;BME280;42803;55.762;38.084;2022-08-20T11:20:42;100642.47;;;19.95;53.40
53011;BME280;42803;55.762;38.084;2022-08-20T11:23:11;100640.63;;;20.09;52.29
53011;BME280;42803;55.762;38.084;2022-08-20T11:25:40;100640.63;;;20.09;51.74
53011;BME280;42803;55.762;38.084;2022-08-20T11:28:09;100638.41;;;20.17;51.61
53011;BME280;42803;55.762;38.084;2022-08-20T11:30:39;100629.09;;;20.40;51.11
53011;BME280;42803;55.762;38.084;2022-08-20T11:33:08;100632.31;;;20.49;49.35
53011;BME280;42803;55.762;38.084;2022-08-20T11:35:37;100627.19;;;20.68;48.58
53011;BME280;42803;55.762;38.084;2022-08-20T11:38:18;100629.19;;;20.73;48.37
53011;BME280;42803;55.762;38.084;2022-08-20T11:40:47;100629.56;;;20.97;47.15
53011;BME280;42803;55.762;38.084;2022-08-20T11:43:16;100626.09;;;21.14;47.06
53011;BME280;42803;55.762;38.084;2022-08-20T11:45:46;100616.22;;;21.11;46.37
53011;BME280;42803;55.762;38.084;2022-08-20T11:48:16;100617.59;;;21.21;46.21
53011;BME280;42803;55.762;38.084;2022-08-20T11:50:46;100605.25;;;21.05;45.48
53011;BME280;42803;55.762;38.084;2022-08-20T11:53:17;100614.97;;;21.05;45.82
53011;BME280;42803;55.762;38.084;2022-08-20T11:55:46;100612.41;;;21.06;45.28
53011;BME280;42803;55.762;38.084;2022-08-20T11:58:15;100606.28;;;20.91;44.28
53011;BME280;42803;55.762;38.084;2022-08-20T12:00:44;100609.75;;;21.06;45.02
53011;BME280;42803;55.762;38.084;2022-08-20T12:03:14;100605.25;;;21.05;45.22
53011;BME280;42803;55.762;38.084;2022-08-20T12:05:44;100597.13;;;21.18;46.00
53011;BME280;42803;55.762;38.084;2022-08-20T12:08:14;100598.75;;;21.33;46.62
53011;BME280;42803;55.762;38.084;2022-08-20T12:10:57;100594.63;;;21.38;46.73
53011;BME280;42803;55.762;38.084;2022-08-20T12:13:29;100598.13;;;21.04;47.03
53011;BME280;42803;55.762;38.084;2022-08-20T12:16:16;100604.56;;;21.26;47.16
53011;BME280;42803;55.762;38.084;2022-08-20T12:18:46;100588.72;;;21.27;47.07
53011;BME280;42803;55.762;38.084;2022-08-20T12:21:15;100582.84;;;21.16;47.10
53011;BME280;42803;55.762;38.084;2022-08-20T12:23:45;100578.03;;;21.26;47.24
53011;BME280;42803;55.762;38.084;2022-08-20T12:26:16;100587.78;;;21.43;47.10
53011;BME280;42803;55.762;38.084;2022-08-20T12:28:45;100582.47;;;21.43;46.50
53011;BME280;42803;55.762;38.084;2022-08-20T12:31:14;100576.78;;;21.53;46.17
53011;BME280;42803;55.762;38.084;2022-08-20T12:33:43;100575.09;;;21.55;45.78
53011;BME280;42803;55.762;38.084;2022-08-20T12:36:12;100576.63;;;21.86;45.58
53011;BME280;42803;55.762;38.084;2022-08-20T12:38:41;100579.69;;;21.76;45.81
53011;BME280;42803;55.762;38.084;2022-08-20T12:41:10;100584.38;;;21.63;45.14
53011;BME280;42803;55.762;38.084;2022-08-20T12:43:41;100575.63;;;21.48;45.72
53011;BME280;42803;55.762;38.084;2022-08-20T12:46:10;100572.97;;;21.48;45.91
53011;BME280;42803;55.762;38.084;2022-08-20T12:48:39;100558.94;;;21.51;45.87
53011;BME280;42803;55.762;38.084;2022-08-20T12:51:08;100555.91;;;21.43;45.96
53011;BME280;42803;55.762;38.084;2022-08-20T12:53:37;100560.84;;;21.53;45.84
53011;BME280;42803;55.762;38.084;2022-08-20T12:56:07;100558.41;;;21.40;46.43
53011;BME280;42803;55.762;38.084;2022-08-20T12:58:36;100559.94;;;21.18;46.20
53011;BME280;42803;55.762;38.084;2022-08-20T13:01:06;100555.03;;;21.10;46.58
53011;BME280;42803;55.762;38.084;2022-08-20T13:03:35;100556.91;;;21.11;46.49